Terminal Aerodrome Forecast
Issued by NWS

Home | Current Version | Previous Version | Text Only | Print | Product List | Glossary On
Versions: 1 2 3 4 5 6 7 8 9 10 11 12 13 14 15 16 17 18 19 20 21 22 23 24 25 26
000
FTUS45 KBOU 302339
TAFBJC
TAF
KBJC 302339Z 0100/0124 29012G24KT P6SM FEW070 SCT200
     FM010200 24006KT P6SM FEW090 SCT200
     FM010500 30007KT P6SM SCT200
     FM011400 VRB05KT P6SM FEW120 BKN200
     FM011800 08006KT P6SM SCT120 BKN200=

USA.gov is the U.S. government's official web portal to all federal, state and local government web resources and services.